This is the latest recevied weather packets stored in our database for station/object N6GPM. If no packets are shown the sender has not sent any weather packets the latest 10 day(s).
| Time | Temp. | Humidity | Pressure | Rain* | Wind** | Luminosity | Snow |
|---|---|---|---|---|---|---|---|
| 1787421298 | 33.89° C | 28% | 1020.6 hPa | 0 mm | - | 878 W/m² | - |
| 1787420997 | 33.89° C | 29% | 1020.7 hPa | 0 mm | - | 864 W/m² | - |
| 1787420693 | 33.33° C | 31% | 1020.6 hPa | 0 mm | - | 850 W/m² | - |
| 1787420389 | 33.33° C | 32% | 1020.7 hPa | 0 mm | - | 837 W/m² | - |
| 1787420086 | 33.33° C | 33% | 1020.4 hPa | 0 mm | - | 828 W/m² | - |
| 1787419781 | 33.33° C | 33% | 1020.5 hPa | 0 mm | - | 807 W/m² | - |
| 1787419477 | 32.78° C | 34% | 1020.6 hPa | 0 mm | - | 793 W/m² | - |
| 1787419172 | 33.33° C | 32% | 1020.5 hPa | 0 mm | - | 777 W/m² | - |
| 1787418868 | 33.33° C | 31% | 1020.4 hPa | 0 mm | - | 765 W/m² | - |
| 1787418564 | 32.78° C | 31% | 1020.5 hPa | 0 mm | - | 749 W/m² | - |
| 1787418260 | 33.33° C | 30% | 1020.7 hPa | 0 mm | - | 733 W/m² | - |
| 1787417955 | 33.33° C | 30% | 1020.6 hPa | 0 mm | - | 717 W/m² | - |
| 1787417652 | 32.78° C | 30% | 1020.7 hPa | 0 mm | - | 700 W/m² | - |
| 1787417350 | 32.78° C | 30% | 1020.4 hPa | 0 mm | - | 684 W/m² | - |
| 1787417046 | 32.78° C | 31% | 1020.6 hPa | 0 mm | - | 663 W/m² | - |
| 1787416736 | 32.78° C | 30% | 1020.6 hPa | 0 mm | - | 649 W/m² | - |
| 1787416432 | 31.11° C | 32% | 1020.6 hPa | 0 mm | - | 630 W/m² | - |
| 1787416127 | 31.67° C | 33% | 1020.4 hPa | 0 mm | - | 614 W/m² | - |
| 1787415822 | 31.11° C | 34% | 1020.4 hPa | 0 mm | - | 594 W/m² | - |
| 1787415522 | 31.11° C | 33% | 1020.5 hPa | 0 mm | - | 574 W/m² | - |
| 1787415217 | 30.56° C | 35% | 1020.5 hPa | 0 mm | - | 553 W/m² | - |
| 1787414912 | 30° C | 38% | 1020.4 hPa | 0 mm | - | 532 W/m² | - |
| 1787414608 | 30° C | 38% | 1020.2 hPa | 0 mm | - | 514 W/m² | - |
| 1787414306 | 28.89° C | 41% | 1020.3 hPa | 0 mm | - | 491 W/m² | - |
| 1787414001 | 28.89° C | 41% | 1020.4 hPa | 0 mm | - | 472 W/m² | - |
* Rain latest hour (hover to see other rain measurements)
** Current wind speed in m/s (hover to see current wind gust speed)